Midland, South Dakota
Current Conditions -  °F | °C
As of 1:55 AM on Saturday 25 Oct 2014 (Local Time) from KPHP Reporting Station
Clear Clear  
Wind Chill: 34°   Ceiling: Unl
Heat Index: 39°   Visibility: 10mi
Dew Point: 34°   Wind: 7mph
Humidity: 82%   Direction: 260°W
Pressure: 30.13"   Gusts: NA
Location:  44.07°N, 101.16°W
Report Text: KPHP 250755Z AUTO 26006KT 10SM CLR 04/01 A3013 RMK AO2 SLP197 T00390011
Loading
Personal Weather Stations






























Interactive Weather Map
Tropical Storm Tracking
New forecast layout! Learn more

10-Day Weather Forecast

Advertisements
Track Severe Weather on mobile